Aviation Digital Data Service (ADDS)

Output produced by METARs form (0902 UTC 26 January 2020)
found at http://www.aviationweather.gov/metar/data/
 
Forecast for: SUMU (CARRASCO (CIV/MI, UY)
Text: TAF SUMU 260530Z 2606/2706 04010KT CAVOK TX32/2618Z TN19/2609Z
Forecast period: 0600 to 1600 UTC 26 January 2020
Forecast type: FROM: standard forecast or significant change
Winds: from the NE (40 degrees) at 12 MPH (10 knots; 5.1 m/s)
Visibility: 6 or more miles 10+ km)
Ceiling: unknown
Clouds: missing
Weather: no significant weather forecast for this period
Text: BECMG 2616/1318 13015KT
Forecast period: 1600 UTC 26 January 2020 to 0600 UTC 27 January 2020
Forecast type: BECOMING: Conditions expected to become as follows by 1800 UTC 13 January 2020
Winds: from the SE (130 degrees) at 17 MPH (15 knots; 7.7 m/s)
Visibility: 6 or more miles 10+ km)
Ceiling: unknown
Clouds: missing
Weather: no significant weather forecast for this period